Sunday, December 17, 2017, 2:37 PM EST
Back to Local

KPIT, Greater Pittsburgh International

Location: Coraopolis, PA, United States Lat: 40.483
Local Time: 2:37 PM EST (19:37 GMT) Lon: -80.233
Time Zone: US/Eastern Elev: 1204 ft

Show me the last for .
Show Decoded

2017-12-17 13:51 METAR KPIT 171851Z 19003KT 10SM OVC130 06/M02 A3010 RMK AO2 SLP209 T00561017 =
2017-12-17 12:51 METAR KPIT 171751Z 21006KT 10SM OVC150 06/M02 A3014 RMK AO2 SLP222 T00561017
                 10056 20006 58019 =
2017-12-17 11:51 METAR KPIT 171651Z 20005KT 10SM OVC150 05/M02 A3016 RMK AO2 SLP231 T00501017 =
2017-12-17 10:51 METAR KPIT 171551Z 00000KT 10SM OVC150 04/M02 A3019 RMK AO2 SLP242 T00391017 =
2017-12-17 09:51 METAR KPIT 171451Z 00000KT 10SM OVC200 02/M02 A3020 RMK AO2 SLP245 T00221017
                 53009 =
2017-12-17 08:51 METAR KPIT 171351Z 00000KT 10SM OVC200 01/M02 A3018 RMK AO2 SLP241 T00111022 =
2017-12-17 07:51 METAR KPIT 171251Z 00000KT 10SM OVC220 02/M03 A3018 RMK AO2 SLP237 T00221028 =
2017-12-17 06:51 METAR KPIT 171151Z 25003KT 10SM BKN250 03/M03 A3017 RMK AO2 SLP234 T00281028
                 10033 20022 53005 =
2017-12-17 05:51 METAR KPIT 171051Z 24007KT 10SM SCT250 03/M03 A3017 RMK AO2 SLP232 T00281028 =
2017-12-17 04:51 METAR KPIT 170951Z 23005KT 10SM SCT200 03/M03 A3015 RMK AO2 SLP227 T00281028 =
2017-12-17 03:51 METAR KPIT 170851Z 23006KT 10SM FEW200 03/M03 A3016 RMK AO2 SLP228 T00281028
                 51007 =
2017-12-17 02:51 METAR KPIT 170751Z 21004KT 10SM SCT200 03/M03 A3016 RMK AO2 SLP228 T00281028 =
2017-12-17 01:51 METAR KPIT 170651Z 23005KT 10SM SCT250 03/M03 A3015 RMK AO2 SLP227 T00331028 =
2017-12-17 00:51 METAR KPIT 170551Z 23005KT 10SM FEW250 03/M03 A3014 RMK AO2 SLP221 T00331033
                 10033 21006 51007 =
2017-12-16 23:51 METAR KPIT 170451Z 20004KT 10SM FEW250 02/M04 A3013 RMK AO2 SLP221 T00171039
                 400671017 =
2017-12-16 22:51 METAR KPIT 170351Z 00000KT 10SM FEW250 01/M04 A3012 RMK AO2 SLP218 T00111039 =
2017-12-16 21:51 METAR KPIT 170251Z 00000KT 10SM FEW250 01/M04 A3011 RMK AO2 SLP217 T00111039
                 51009 =
2017-12-16 20:51 METAR KPIT 170151Z 20003KT 10SM FEW250 00/M04 A3011 RMK AO2 SLP215 T00001039 =
2017-12-16 19:51 METAR KPIT 170051Z 00000KT 10SM FEW250 02/M03 A3011 RMK AO2 SLP215 T00221033 $ =
2017-12-16 18:51 METAR KPIT 162351Z 22003KT 10SM FEW250 03/M03 A3009 RMK AO2 SLP207 T00331033
                 10067 20033 53025 $ =
2017-12-16 17:51 METAR KPIT 162251Z 23003KT 10SM FEW250 05/M03 A3006 RMK AO2 SLP195 T00501033 $ =
2017-12-16 16:51 METAR KPIT 162151Z 23005KT 10SM FEW100 FEW250 06/M03 A3003 RMK AO2 SLP186
                 T00611033 $ =
2017-12-16 15:51 METAR KPIT 162051Z 23006KT 10SM FEW090 FEW220 07/M03 A3001 RMK AO2 SLP179
                 T00671028 53000 $ =
2017-12-16 14:51 METAR KPIT 161951Z 22010KT 10SM FEW090 SCT200 06/M03 A3000 RMK AO2 SLP175
                 T00561033 $ =

Support USWX by starting your Amazon purchase here.